createdAt,value
2019-04-26T00:01:06.154Z,98384.70
2019-04-26T00:03:16.820Z,98384.42
2019-04-26T00:05:34.351Z,98381.96
2019-04-26T00:07:35.375Z,98381.69
2019-04-26T00:09:43.698Z,98375.47
2019-04-26T00:11:53.370Z,98378.97
2019-04-26T00:14:11.381Z,98372.17
2019-04-26T00:16:21.595Z,98373.62
2019-04-26T00:18:29.663Z,98371.61
2019-04-26T00:20:37.909Z,98378.45
2019-04-26T00:22:45.767Z,98371.85
2019-04-26T00:24:54.036Z,98373.66
2019-04-26T00:27:02.008Z,98369.34
2019-04-26T00:29:11.264Z,98372.22
2019-04-26T00:31:19.395Z,98371.79
2019-04-26T00:33:27.429Z,98379.77
2019-04-26T00:35:46.810Z,98377.50
2019-04-26T00:37:46.712Z,98371.10
2019-04-26T00:39:55.047Z,98365.44
2019-04-26T00:42:03.839Z,98364.59
2019-04-26T00:44:13.854Z,98368.12
2019-04-26T00:46:25.003Z,98365.25
2019-04-26T00:48:33.540Z,98362.69
2019-04-26T00:50:41.773Z,98365.25
2019-04-26T00:52:50.888Z,98365.09
2019-04-26T00:55:00.111Z,98369.86
2019-04-26T00:57:09.033Z,98366.84
2019-04-26T00:59:18.390Z,98362.91
2019-04-26T01:01:28.361Z,98361.84
2019-04-26T01:03:36.635Z,98359.27
2019-04-26T01:05:46.476Z,98362.77
2019-04-26T01:07:56.180Z,98362.38
2019-04-26T01:10:05.411Z,98358.63
2019-04-26T01:12:13.613Z,98352.03
2019-04-26T01:14:22.127Z,98345.81
2019-04-26T01:16:30.380Z,98347.93
2019-04-26T01:18:38.739Z,98341.61
2019-04-26T01:20:50.353Z,98344.18
2019-04-26T01:23:02.597Z,98339.50
2019-04-26T01:25:38.290Z,98338.13
2019-04-26T01:27:46.424Z,98337.77
2019-04-26T01:29:59.135Z,98332.20
2019-04-26T01:32:12.698Z,98337.33
2019-04-26T01:34:22.055Z,98335.66
2019-04-26T01:36:31.586Z,98344.48
2019-04-26T01:38:39.534Z,98347.27
2019-04-26T01:40:49.371Z,98346.73
2019-04-26T01:42:59.067Z,98336.67
2019-04-26T01:45:11.517Z,98339.13
2019-04-26T01:47:20.773Z,98338.30
2019-04-26T01:49:29.145Z,98334.55
2019-04-26T01:51:43.407Z,98335.77
2019-04-26T01:53:53.024Z,98330.06
2019-04-26T01:56:00.958Z,98330.64
2019-04-26T01:58:09.065Z,98323.30
2019-04-26T02:00:25.546Z,98318.17
2019-04-26T02:02:39.040Z,98317.81
2019-04-26T02:04:50.123Z,98316.15
2019-04-26T02:06:58.096Z,98310.67
2019-04-26T02:09:09.258Z,98311.76
2019-04-26T02:11:17.430Z,98310.48
2019-04-26T02:13:26.827Z,98312.40
2019-04-26T02:15:35.492Z,98305.73
2019-04-26T02:17:45.831Z,98306.07
2019-04-26T02:19:53.978Z,98307.55
2019-04-26T02:22:03.652Z,98306.45
2019-04-26T02:24:23.901Z,98305.52
2019-04-26T02:26:36.729Z,98296.38
2019-04-26T02:28:44.632Z,98295.50
2019-04-26T02:30:53.778Z,98291.83
2019-04-26T02:33:02.102Z,98300.97
2019-04-26T02:35:11.782Z,98299.30
2019-04-26T02:37:20.076Z,98295.44
2019-04-26T02:39:37.526Z,98297.64
2019-04-26T02:41:47.508Z,98298.18
2019-04-26T02:43:59.950Z,98289.76
2019-04-26T02:46:13.452Z,98286.94
2019-04-26T02:48:30.839Z,98281.16
2019-04-26T02:50:44.151Z,98283.98
2019-04-26T02:53:11.809Z,98289.20
2019-04-26T02:55:57.692Z,98288.45
2019-04-26T02:58:05.968Z,98282.03
2019-04-26T03:00:18.952Z,98277.63
2019-04-26T03:02:30.231Z,98268.73
2019-04-26T03:04:40.019Z,98271.70
2019-04-26T03:07:02.519Z,98269.86
2019-04-26T03:09:01.329Z,98271.08
2019-04-26T03:11:17.486Z,98264.11
2019-04-26T03:13:34.872Z,98258.99
2019-04-26T03:16:07.675Z,98259.17
2019-04-26T03:18:31.678Z,98259.50
2019-04-26T03:20:44.486Z,98263.31
2019-04-26T03:23:18.089Z,98257.63
2019-04-26T03:25:38.830Z,98251.86
2019-04-26T03:28:03.369Z,98249.53
2019-04-26T03:30:25.087Z,98245.88
2019-04-26T03:32:54.111Z,98244.78
2019-04-26T03:35:36.809Z,98234.34
2019-04-26T03:37:54.154Z,98233.59
2019-04-26T03:40:42.421Z,98237.25
2019-04-26T03:43:12.995Z,98236.20
2019-04-26T03:45:52.590Z,98235.81
2019-04-26T03:48:21.319Z,98232.02
2019-04-26T03:50:42.841Z,98230.34
2019-04-26T03:53:16.728Z,98228.94
2019-04-26T03:55:34.375Z,98232.11
2019-04-26T03:58:15.321Z,98228.45
2019-04-26T04:00:30.250Z,98227.27
2019-04-26T04:03:03.141Z,98225.95
2019-04-26T04:05:40.125Z,98226.46
2019-04-26T04:07:51.712Z,98224.48
2019-04-26T04:10:13.133Z,98224.75
2019-04-26T04:12:31.331Z,98222.84
2019-04-26T04:14:55.587Z,98224.45
2019-04-26T04:17:15.354Z,98221.31
2019-04-26T04:19:55.224Z,98224.91
2019-04-26T04:22:15.334Z,98228.95
2019-04-26T04:24:30.719Z,98233.79
2019-04-26T04:27:00.797Z,98231.42
2019-04-26T04:29:42.535Z,98237.74
2019-04-26T04:32:00.741Z,98239.04
2019-04-26T04:34:33.616Z,98238.50
2019-04-26T04:36:48.271Z,98239.55
2019-04-26T04:39:23.140Z,98235.62
2019-04-26T04:41:59.106Z,98236.62
2019-04-26T04:44:34.051Z,98232.87
2019-04-26T04:46:54.114Z,98225.34
2019-04-26T04:49:25.014Z,98217.11
2019-04-26T04:52:29.501Z,98219.27
2019-04-26T04:55:09.498Z,98213.29
2019-04-26T04:57:56.915Z,98211.64
2019-04-26T05:00:19.979Z,98215.06
2019-04-26T05:02:46.673Z,98208.91
2019-04-26T05:05:34.134Z,98212.39
2019-04-26T05:08:23.249Z,98200.83
2019-04-26T05:11:10.166Z,98206.55
2019-04-26T05:13:42.324Z,98207.69
2019-04-26T05:16:23.712Z,98214.22
2019-04-26T05:18:58.878Z,98214.45
2019-04-26T05:21:35.778Z,98218.74
2019-04-26T05:24:08.647Z,98216.72
2019-04-26T05:26:29.493Z,98220.40
2019-04-26T05:29:07.664Z,98215.34
2019-04-26T05:31:48.528Z,98217.27
2019-04-26T05:34:23.969Z,98214.66
2019-04-26T05:36:36.683Z,98213.66
2019-04-26T05:39:09.263Z,98205.42
2019-04-26T05:41:44.101Z,98201.27
2019-04-26T05:44:35.453Z,98208.11
2019-04-26T05:47:24.305Z,98206.75
2019-04-26T05:50:13.297Z,98204.91
2019-04-26T05:52:55.867Z,98200.20
2019-04-26T05:55:54.108Z,98194.51
2019-04-26T05:58:29.177Z,98193.89
2019-04-26T06:01:19.232Z,98188.57
2019-04-26T06:03:52.873Z,98186.19
2019-04-26T06:06:33.892Z,98180.53
2019-04-26T06:08:59.624Z,98180.91
2019-04-26T06:11:13.865Z,98184.86
2019-04-26T06:13:53.717Z,98186.94
2019-04-26T06:16:48.020Z,98180.99
2019-04-26T06:19:20.733Z,98176.34
2019-04-26T06:22:11.207Z,98170.84
2019-04-26T06:24:39.472Z,98167.36
2019-04-26T06:27:14.251Z,98167.36
2019-04-26T06:29:58.681Z,98165.02
2019-04-26T06:32:37.949Z,98161.98
2019-04-26T06:35:03.580Z,98152.41
2019-04-26T06:37:27.311Z,98149.09
2019-04-26T06:39:39.875Z,98150.83
2019-04-26T06:42:09.159Z,98142.77
2019-04-26T06:44:29.561Z,98139.09
2019-04-26T06:46:49.449Z,98129.19
2019-04-26T06:49:24.045Z,98130.06
2019-04-26T06:51:45.369Z,98127.19
2019-04-26T06:54:19.137Z,98122.17
2019-04-26T06:56:48.104Z,98118.31
2019-04-26T06:59:40.210Z,98119.95
2019-04-26T07:01:59.045Z,98115.55
2019-04-26T07:04:50.600Z,98118.17
2019-04-26T07:07:17.965Z,98099.00
2019-04-26T07:09:35.908Z,98096.90
2019-04-26T07:12:29.903Z,98093.61
2019-04-26T07:15:10.129Z,98091.34
2019-04-26T07:17:51.439Z,98089.17
2019-04-26T07:20:29.577Z,98086.05
2019-04-26T07:23:14.193Z,98082.66
2019-04-26T07:26:01.703Z,98083.59
2019-04-26T07:28:47.791Z,98078.17
2019-04-26T07:31:08.584Z,98078.41
2019-04-26T07:33:46.165Z,98080.28
2019-04-26T07:36:10.437Z,98075.18
2019-04-26T07:39:20.315Z,98074.13
2019-04-26T07:42:09.490Z,98075.48
2019-04-26T07:44:50.982Z,98073.86
2019-04-26T07:47:41.665Z,98069.81
2019-04-26T07:50:33.221Z,98078.64
2019-04-26T07:53:13.755Z,98070.69
2019-04-26T07:55:38.291Z,98069.38
2019-04-26T07:58:24.291Z,98067.17
2019-04-26T08:00:44.937Z,98068.02
2019-04-26T08:03:04.139Z,98067.86
2019-04-26T08:05:25.572Z,98061.34
2019-04-26T08:07:43.695Z,98072.45
2019-04-26T08:10:06.008Z,98066.24
2019-04-26T08:12:19.733Z,98071.64
2019-04-26T08:14:54.407Z,98062.66
2019-04-26T08:17:30.242Z,98058.42
2019-04-26T08:19:59.562Z,98057.30
2019-04-26T08:22:17.906Z,98055.19
2019-04-26T08:24:27.864Z,98043.09
2019-04-26T08:26:37.489Z,98046.18
2019-04-26T08:28:48.261Z,98046.33
2019-04-26T08:30:58.126Z,98042.06
2019-04-26T08:33:12.835Z,98037.81
2019-04-26T08:35:21.976Z,98035.98
2019-04-26T08:37:45.570Z,98040.37
2019-04-26T08:39:56.603Z,98039.88
2019-04-26T08:42:09.034Z,98032.22
2019-04-26T08:44:33.862Z,98030.23
2019-04-26T08:46:51.064Z,98028.61
2019-04-26T08:49:08.283Z,98033.31
2019-04-26T08:51:22.950Z,98025.16
2019-04-26T08:53:36.680Z,98027.42
2019-04-26T08:55:46.789Z,98021.80
2019-04-26T08:57:59.278Z,98030.09
2019-04-26T09:00:24.080Z,98028.13
2019-04-26T09:02:39.160Z,98030.15
2019-04-26T09:04:57.402Z,98030.80
2019-04-26T09:07:09.835Z,98022.41
2019-04-26T09:09:23.027Z,98030.21
2019-04-26T09:11:34.017Z,98034.11
2019-04-26T09:13:45.803Z,98027.36
2019-04-26T09:16:10.006Z,98035.98
2019-04-26T09:18:18.115Z,98032.52
2019-04-26T09:20:29.407Z,98043.53
2019-04-26T09:22:35.583Z,98038.41
2019-04-26T09:25:03.292Z,98047.00
2019-04-26T09:27:20.801Z,98043.06
2019-04-26T09:29:34.861Z,98047.91
2019-04-26T09:32:05.399Z,98039.91
2019-04-26T09:34:18.431Z,98043.27
2019-04-26T09:36:26.311Z,98042.34
2019-04-26T09:38:34.297Z,98038.14
2019-04-26T09:40:42.560Z,98033.24
2019-04-26T09:43:10.419Z,98029.22
2019-04-26T09:45:22.632Z,98023.65
2019-04-26T09:47:38.391Z,98024.83
2019-04-26T09:50:01.485Z,98018.16
2019-04-26T09:52:11.117Z,98014.40
2019-04-26T09:54:19.227Z,98004.06
2019-04-26T09:56:28.083Z,98008.32
2019-04-26T09:58:37.173Z,98003.85
2019-04-26T10:00:48.644Z,98000.55
2019-04-26T10:02:54.779Z,97994.19
2019-04-26T10:05:02.685Z,97998.33
2019-04-26T10:07:10.845Z,98006.59
2019-04-26T10:09:21.244Z,97999.27
2019-04-26T10:11:30.919Z,98001.73
2019-04-26T10:13:56.670Z,98003.66
2019-04-26T10:16:13.711Z,97993.41
2019-04-26T10:18:24.282Z,97989.41
2019-04-26T10:20:33.779Z,97987.69
2019-04-26T10:22:41.635Z,97985.97
2019-04-26T10:24:49.523Z,97986.91
2019-04-26T10:26:59.204Z,97978.11
2019-04-26T10:29:07.442Z,97980.81
2019-04-26T10:31:17.216Z,97975.08
2019-04-26T10:33:24.950Z,97970.88
2019-04-26T10:35:33.362Z,97969.72
2019-04-26T10:37:43.853Z,97982.55
2019-04-26T10:39:51.066Z,97972.70
2019-04-26T10:41:59.262Z,97972.07
2019-04-26T10:44:07.427Z,97980.09
2019-04-26T10:46:16.626Z,97975.53
2019-04-26T10:48:24.541Z,97969.38
2019-04-26T10:50:34.313Z,97975.40
2019-04-26T10:52:54.387Z,97972.59
2019-04-26T10:55:18.940Z,97972.94
2019-04-26T10:57:41.856Z,97970.41
2019-04-26T10:59:58.539Z,97966.95
2019-04-26T11:02:09.990Z,97969.95
2019-04-26T11:04:17.896Z,97962.20
2019-04-26T11:06:27.842Z,97967.54
2019-04-26T11:08:36.529Z,97958.48
2019-04-26T11:10:48.909Z,97958.50
2019-04-26T11:12:54.298Z,97953.81
2019-04-26T11:15:02.116Z,97950.03
2019-04-26T11:17:11.589Z,97946.41
2019-04-26T11:19:20.355Z,97944.17
2019-04-26T11:21:29.325Z,97942.86
2019-04-26T11:23:41.089Z,97939.99
2019-04-26T11:25:47.380Z,97933.55
2019-04-26T11:27:55.382Z,97932.33
2019-04-26T11:30:11.518Z,97929.95
2019-04-26T11:32:13.174Z,97938.92
2019-04-26T11:34:23.571Z,97938.73
2019-04-26T11:36:31.155Z,97941.82
2019-04-26T11:38:40.031Z,97931.01
2019-04-26T11:40:49.838Z,97928.33
2019-04-26T11:42:57.832Z,97927.34
2019-04-26T11:45:14.203Z,97924.15
2019-04-26T11:47:20.143Z,97932.31
2019-04-26T11:49:28.266Z,97925.02
2019-04-26T11:51:36.640Z,97923.46
2019-04-26T11:53:46.156Z,97919.87
2019-04-26T11:55:54.184Z,97919.16
2019-04-26T11:58:02.075Z,97921.79
2019-04-26T12:00:12.122Z,97922.48
2019-04-26T12:02:20.190Z,97918.30
2019-04-26T12:04:29.625Z,97908.36
2019-04-26T12:06:39.086Z,97908.36
2019-04-26T12:08:49.722Z,97906.19
2019-04-26T12:10:58.688Z,97899.13
2019-04-26T12:13:06.575Z,97901.76
2019-04-26T12:15:15.481Z,97904.48
2019-04-26T12:17:23.350Z,97905.83
2019-04-26T12:19:31.205Z,97903.56
2019-04-26T12:21:39.031Z,97902.12
2019-04-26T12:23:47.300Z,97898.75
2019-04-26T12:25:55.278Z,97891.36
2019-04-26T12:28:05.981Z,97879.22
2019-04-26T12:30:15.438Z,97874.40
2019-04-26T12:32:23.310Z,97890.05
2019-04-26T12:34:31.214Z,97885.78
2019-04-26T12:36:39.403Z,97882.47
2019-04-26T12:38:47.295Z,97885.59
2019-04-26T12:40:55.297Z,97884.63
2019-04-26T12:43:04.444Z,97880.81
2019-04-26T12:45:32.821Z,97880.72
2019-04-26T12:47:58.918Z,97886.16
2019-04-26T12:50:07.691Z,97878.46
2019-04-26T12:52:17.597Z,97873.14
2019-04-26T12:54:25.165Z,97871.85
2019-04-26T12:56:33.069Z,97871.05
2019-04-26T12:58:40.863Z,97866.70
2019-04-26T13:00:54.113Z,97868.34
2019-04-26T13:02:59.832Z,97865.61
2019-04-26T13:05:08.429Z,97870.00
2019-04-26T13:07:24.014Z,97868.12
2019-04-26T13:09:32.598Z,97865.39
2019-04-26T13:11:48.974Z,97860.34
2019-04-26T13:14:00.618Z,97860.75
2019-04-26T13:16:10.208Z,97859.34
2019-04-26T13:18:18.406Z,97862.39
2019-04-26T13:20:28.847Z,97863.70
2019-04-26T13:22:45.872Z,97860.95
2019-04-26T13:24:45.657Z,97856.82
2019-04-26T13:26:53.622Z,97853.64
2019-04-26T13:29:01.672Z,97841.47
2019-04-26T13:31:09.566Z,97848.39
2019-04-26T13:33:17.526Z,97846.07
2019-04-26T13:35:25.611Z,97837.92
2019-04-26T13:37:35.690Z,97830.95
2019-04-26T13:39:43.650Z,97835.57
2019-04-26T13:42:02.083Z,97832.58
2019-04-26T13:44:05.656Z,97820.84
2019-04-26T13:46:29.201Z,97823.18
2019-04-26T13:48:54.091Z,97825.82
2019-04-26T13:51:14.377Z,97813.34
2019-04-26T13:53:25.777Z,97819.82
2019-04-26T13:55:33.820Z,97819.13
2019-04-26T13:57:44.585Z,97807.80
2019-04-26T13:59:52.251Z,97818.09
2019-04-26T14:02:11.265Z,97810.22
2019-04-26T14:04:12.130Z,97810.54
2019-04-26T14:06:20.526Z,97804.06
2019-04-26T14:08:28.798Z,97804.88
2019-04-26T14:10:36.991Z,97815.80
2019-04-26T14:12:49.996Z,97814.07
2019-04-26T14:14:58.609Z,97814.68
2019-04-26T14:17:06.878Z,97815.38
2019-04-26T14:19:16.651Z,97812.26
2019-04-26T14:21:24.564Z,97810.03
2019-04-26T14:23:37.906Z,97808.91
2019-04-26T14:25:49.186Z,97812.55
2019-04-26T14:27:56.961Z,97808.72
2019-04-26T14:30:08.479Z,97807.11
2019-04-26T14:32:17.541Z,97814.27
2019-04-26T14:34:25.541Z,97812.05
2019-04-26T14:36:33.414Z,97816.20
2019-04-26T14:38:41.373Z,97807.49
2019-04-26T14:41:02.788Z,97801.45
2019-04-26T14:43:06.599Z,97804.38
2019-04-26T14:45:22.436Z,97811.05
2019-04-26T14:47:18.867Z,97814.06
2019-04-26T14:49:38.439Z,97813.95
2019-04-26T14:51:36.421Z,97816.69
2019-04-26T14:53:44.394Z,97812.86
2019-04-26T14:55:54.598Z,97812.57
2019-04-26T14:58:02.973Z,97811.34
2019-04-26T15:00:16.637Z,97808.43
2019-04-26T15:02:47.237Z,97804.88
2019-04-26T15:04:58.095Z,97805.89
2019-04-26T15:07:06.381Z,97799.61
2019-04-26T15:09:19.549Z,97804.87
2019-04-26T15:11:52.763Z,97800.93
2019-04-26T15:16:26.673Z,97809.40
2019-04-26T15:18:37.102Z,97803.94
2019-04-26T15:20:57.082Z,97803.98
2019-04-26T15:23:13.250Z,97800.53
2019-04-26T15:25:36.910Z,97799.34
2019-04-26T15:27:46.806Z,97801.02
2019-04-26T15:30:07.366Z,97797.62
2019-04-26T15:32:15.462Z,97795.48
2019-04-26T15:34:26.409Z,97797.91
2019-04-26T15:36:49.514Z,97793.05
2019-04-26T15:41:30.968Z,97792.28
2019-04-26T15:43:42.870Z,97793.94
2019-04-26T15:46:12.399Z,97792.78
2019-04-26T15:48:36.416Z,97789.52
2019-04-26T15:50:52.022Z,97784.77
2019-04-26T15:53:02.506Z,97787.98
2019-04-26T15:55:10.649Z,97786.91
2019-04-26T16:00:14.210Z,97785.88
2019-04-26T16:02:26.082Z,97784.30
2019-04-26T16:04:32.560Z,97786.20
2019-04-26T16:06:41.905Z,97787.94
2019-04-26T16:08:50.175Z,97790.36
2019-04-26T16:10:58.072Z,97783.60
2019-04-26T16:13:18.528Z,97781.74
2019-04-26T16:15:16.958Z,97785.05
2019-04-26T16:17:25.923Z,97785.48
2019-04-26T16:19:34.035Z,97786.47
2019-04-26T16:21:42.545Z,97783.02
2019-04-26T16:23:52.016Z,97780.01
2019-04-26T16:26:00.187Z,97776.59
2019-04-26T16:28:27.144Z,97781.32
2019-04-26T16:30:37.683Z,97777.48
2019-04-26T16:33:03.319Z,97781.36
2019-04-26T16:35:32.421Z,97777.33
2019-04-26T16:40:26.327Z,97776.41
2019-04-26T16:42:35.276Z,97772.73
2019-04-26T16:44:45.041Z,97770.84
2019-04-26T16:47:01.142Z,97772.88
2019-04-26T16:49:05.817Z,97772.12
2019-04-26T16:51:14.483Z,97777.42
2019-04-26T16:55:35.529Z,97779.58
2019-04-26T16:57:53.681Z,97782.59
2019-04-26T16:59:57.523Z,97785.98
2019-04-26T17:00:32.162Z,97780.63
2019-04-26T17:02:02.426Z,97782.93
2019-04-26T17:04:14.304Z,97781.00
2019-04-26T17:06:23.331Z,97781.05
2019-04-26T17:08:31.395Z,97782.95
2019-04-26T17:10:39.339Z,97780.58
2019-04-26T17:12:50.555Z,97784.07
2019-04-26T17:14:56.743Z,97784.84
2019-04-26T17:17:10.494Z,97792.47
2019-04-26T17:19:19.733Z,97789.66
2019-04-26T17:21:28.092Z,97790.77
2019-04-26T17:23:41.580Z,97786.67
2019-04-26T17:26:06.652Z,97793.64
2019-04-26T17:28:17.952Z,97792.80
2019-04-26T17:30:26.736Z,97791.17
2019-04-26T17:32:35.145Z,97794.03
2019-04-26T17:34:43.407Z,97794.33
2019-04-26T17:36:52.261Z,97790.64
2019-04-26T17:39:00.678Z,97788.17
2019-04-26T17:41:12.662Z,97788.19
2019-04-26T17:43:21.198Z,97792.73
2019-04-26T17:45:30.650Z,97798.52
2019-04-26T17:47:41.808Z,97795.88
2019-04-26T17:49:50.194Z,97796.08
2019-04-26T17:52:00.361Z,97799.23
2019-04-26T17:54:26.680Z,97795.70
2019-04-26T17:56:17.923Z,97800.34
2019-04-26T17:58:31.076Z,97799.45
2019-04-26T18:00:45.612Z,97796.92
2019-04-26T18:02:48.464Z,97798.95
2019-04-26T18:05:02.933Z,97797.84
2019-04-26T18:07:33.864Z,97800.36
2019-04-26T18:09:39.815Z,97796.52
2019-04-26T18:11:28.883Z,97798.23
2019-04-26T18:13:37.850Z,97797.95
2019-04-26T18:15:48.475Z,97805.18
2019-04-26T18:17:55.104Z,97806.20
2019-04-26T18:20:23.499Z,97808.78
2019-04-26T18:22:45.040Z,97811.27
2019-04-26T18:24:52.880Z,97815.22
2019-04-26T18:27:03.564Z,97816.73
2019-04-26T18:29:13.149Z,97819.52
2019-04-26T18:31:28.491Z,97820.38
2019-04-26T18:33:32.814Z,97830.50
2019-04-26T18:35:43.487Z,97829.19
2019-04-26T18:37:50.409Z,97823.34
2019-04-26T18:40:02.061Z,97825.27
2019-04-26T18:42:10.400Z,97828.37
2019-04-26T18:44:18.408Z,97826.09
2019-04-26T18:46:35.841Z,97830.48
2019-04-26T18:48:44.723Z,97836.66
2019-04-26T18:50:52.707Z,97837.63
2019-04-26T18:53:13.903Z,97834.70
2019-04-26T18:55:29.287Z,97838.11
2019-04-26T18:57:34.634Z,97838.25
2019-04-26T18:59:44.820Z,97836.93
2019-04-26T19:01:53.538Z,97834.64
2019-04-26T19:04:09.866Z,97841.92
2019-04-26T19:06:11.290Z,97839.16
2019-04-26T19:08:20.870Z,97838.47
2019-04-26T19:10:29.491Z,97838.64
2019-04-26T19:12:39.543Z,97841.53
2019-04-26T19:15:06.823Z,97844.61
2019-04-26T19:17:12.919Z,97845.89
2019-04-26T19:19:27.989Z,97841.99
2019-04-26T19:21:46.983Z,97840.00
2019-04-26T19:24:05.765Z,97833.80
2019-04-26T19:26:09.399Z,97838.30
2019-04-26T19:28:15.643Z,97836.28
2019-04-26T19:30:23.778Z,97833.81
2019-04-26T19:32:35.485Z,97839.80
2019-04-26T19:34:42.148Z,97832.00
2019-04-26T19:36:52.349Z,97837.33
2019-04-26T19:39:00.112Z,97833.74
2019-04-26T19:41:08.264Z,97834.06
2019-04-26T19:43:28.247Z,97837.13
2019-04-26T19:45:45.931Z,97836.11
2019-04-26T19:48:02.323Z,97833.51
2019-04-26T19:50:15.253Z,97830.20
2019-04-26T19:52:33.665Z,97831.89
2019-04-26T19:54:43.013Z,97832.62
2019-04-26T19:56:56.603Z,97830.09
2019-04-26T19:59:05.221Z,97826.55
2019-04-26T20:01:16.485Z,97823.44
2019-04-26T20:03:22.853Z,97822.92
2019-04-26T20:05:32.023Z,97830.34
2019-04-26T20:07:41.520Z,97831.16
2019-04-26T20:09:52.302Z,97826.13
2019-04-26T20:12:02.567Z,97824.98
2019-04-26T20:14:12.095Z,97825.13
2019-04-26T20:16:19.775Z,97823.84
2019-04-26T20:18:27.582Z,97830.64
2019-04-26T20:20:36.312Z,97826.75
2019-04-26T20:22:44.455Z,97828.05
2019-04-26T20:24:55.191Z,97830.12
2019-04-26T20:27:03.526Z,97828.03
2019-04-26T20:29:11.948Z,97834.98
2019-04-26T20:31:31.005Z,97830.74
2019-04-26T20:33:39.188Z,97836.23
2019-04-26T20:35:47.472Z,97831.82
2019-04-26T20:38:02.802Z,97834.14
2019-04-26T20:40:18.462Z,97838.80
2019-04-26T20:42:18.654Z,97841.64
2019-04-26T20:44:28.673Z,97851.94
2019-04-26T20:46:37.830Z,97864.36
2019-04-26T20:48:46.253Z,97857.80
2019-04-26T20:50:55.508Z,97844.29
2019-04-26T20:53:04.523Z,97850.03
2019-04-26T20:55:13.808Z,97835.63
2019-04-26T20:57:26.530Z,97847.33
2019-04-26T20:59:32.523Z,97847.69
2019-04-26T21:01:43.590Z,97846.86
2019-04-26T21:03:51.727Z,97845.13
2019-04-26T21:06:01.432Z,97844.67
2019-04-26T21:08:10.212Z,97843.72
2019-04-26T21:10:22.139Z,97838.59
2019-04-26T21:12:29.150Z,97842.69
2019-04-26T21:14:37.739Z,97842.83
2019-04-26T21:16:49.458Z,97839.81
2019-04-26T21:18:56.900Z,97843.84
2019-04-26T21:21:05.819Z,97840.97
2019-04-26T21:23:15.367Z,97843.09
2019-04-26T21:25:33.989Z,97839.96
2019-04-26T21:27:46.630Z,97844.16
2019-04-26T21:30:13.511Z,97846.03
2019-04-26T21:32:24.526Z,97842.00
2019-04-26T21:34:34.841Z,97838.76
2019-04-26T21:36:59.737Z,97836.70
2019-04-26T21:39:14.187Z,97840.78
2019-04-26T21:41:23.921Z,97843.02
2019-04-26T21:43:34.797Z,97849.91
2019-04-26T21:45:43.945Z,97841.12
2019-04-26T21:47:51.732Z,97841.39
2019-04-26T21:50:00.756Z,97841.08
2019-04-26T21:52:09.186Z,97841.22
2019-04-26T21:54:18.101Z,97842.39
2019-04-26T21:56:27.082Z,97832.65
2019-04-26T21:58:35.031Z,97831.86
2019-04-26T22:00:43.642Z,97831.38
2019-04-26T22:02:53.446Z,97837.58
2019-04-26T22:05:03.184Z,97833.09
2019-04-26T22:07:12.507Z,97835.00
2019-04-26T22:09:20.251Z,97833.28
2019-04-26T22:11:28.369Z,97838.34
2019-04-26T22:13:44.725Z,97830.14
2019-04-26T22:15:54.571Z,97829.31
2019-04-26T22:18:10.251Z,97833.09
2019-04-26T22:20:21.377Z,97839.64
2019-04-26T22:22:37.475Z,97837.32
2019-04-26T22:24:55.544Z,97836.29
2019-04-26T22:27:04.276Z,97838.56
2019-04-26T22:29:16.673Z,97836.95
2019-04-26T22:31:23.712Z,97842.23
2019-04-26T22:33:32.644Z,97834.13
2019-04-26T22:35:41.292Z,97832.61
2019-04-26T22:37:49.196Z,97840.61
2019-04-26T22:39:57.938Z,97839.44
2019-04-26T22:42:06.757Z,97833.30
2019-04-26T22:44:24.891Z,97829.46
2019-04-26T22:46:46.494Z,97832.84
2019-04-26T22:48:54.888Z,97838.59
2019-04-26T22:51:00.951Z,97832.35
2019-04-26T22:53:11.796Z,97835.06
2019-04-26T22:55:23.975Z,97837.51
2019-04-26T22:57:28.186Z,97841.30
2019-04-26T22:59:38.202Z,97840.61
2019-04-26T23:01:48.743Z,97840.30
2019-04-26T23:03:55.528Z,97841.04
2019-04-26T23:06:07.883Z,97833.84
2019-04-26T23:08:14.720Z,97839.14
2019-04-26T23:10:31.183Z,97841.84
2019-04-26T23:12:39.294Z,97835.73
2019-04-26T23:14:52.100Z,97838.55
2019-04-26T23:17:16.312Z,97840.41
2019-04-26T23:19:38.134Z,97836.87
2019-04-26T23:21:52.958Z,97835.95
2019-04-26T23:23:57.469Z,97846.27
2019-04-26T23:26:06.230Z,97843.45
2019-04-26T23:28:15.126Z,97842.05
2019-04-26T23:30:23.698Z,97848.44
2019-04-26T23:32:33.905Z,97844.70
2019-04-26T23:34:41.991Z,97840.06
2019-04-26T23:36:50.292Z,97837.37
2019-04-26T23:38:58.573Z,97839.04
2019-04-26T23:41:07.719Z,97839.26
2019-04-26T23:43:16.944Z,97839.84
2019-04-26T23:45:29.769Z,97839.64
2019-04-26T23:47:39.459Z,97840.80
2019-04-26T23:49:49.383Z,97843.95
2019-04-26T23:51:58.879Z,97843.00
2019-04-26T23:54:10.323Z,97847.67
2019-04-26T23:56:24.632Z,97844.84
2019-04-26T23:58:32.306Z,97844.27
